logo
Rechercher aéroport 
image banner adimage banner adimage banner ad
image banner ad

SWPN - Pesqueiro Pantanal

Situé à Santo Antonio Do Leverger, Brazil

ICAO - SWPN, IATA -

Données fournies par Airmate  

Information générale

Coordonnées: S17°19'29" W55°31'44"
Élévation : 446 feet MSL.
Variation magnétique : -18.204562511° East
Voir autres Aéroports à Tocatins

Données opérationnelles

Special qualification required
Heure actuelle UTC:
Heure actuelle locale:
Météo à : - ( 0 km )
METAR: KQFX 251810Z AUTO 17003KT 9999 BKN049 19/10 A2989 RMK A02 TSNO
Voir NOTAMs / SUP AIP / TFR affectant cet aéroport [VIEW]
Fréquences de communication: [VIEW]

Pistes:

Identifiant RWYQFULongueur (ft)Largeur (ft)SurfaceLDA (ft)
18262559GRAVEL
36262559GRAVEL

Coordonnées de l'aéroport

Adresse: Santo Antonio Do Leverger Brazil

Vue satellite de SWPN